Terminal Aerodrome Forecast
Issued by NWS

Home | Current Version | Previous Version | Text Only | Print | Product List | Glossary Off
Versions: 1 2 3 4 5 6 7 8 9 10 11 12 13 14

000
FTUS43 KICT 260520
TAFCNU
TAF
KCNU 260520Z 2606/2706 17009KT P6SM BKN100
     FM261000 29008KT P6SM BKN070
     FM261600 32020G28KT P6SM SCT100
     FM270000 33011KT P6SM SKC=

USA.gov is the U.S. government's official web portal to all federal, state and local government web resources and services.